createdAt,value
2018-06-15T00:00:03.458Z,0.00
2018-06-15T00:01:03.451Z,0.00
2018-06-15T00:02:03.427Z,0.00
2018-06-15T00:03:03.418Z,0.00
2018-06-15T00:04:03.405Z,0.00
2018-06-15T00:05:03.386Z,0.00
2018-06-15T00:06:03.380Z,0.00
2018-06-15T00:07:03.366Z,0.00
2018-06-15T00:08:03.351Z,0.00
2018-06-15T00:09:03.342Z,0.00
2018-06-15T00:10:03.329Z,0.00
2018-06-15T00:11:03.308Z,0.00
2018-06-15T00:12:03.296Z,0.00
2018-06-15T00:13:03.287Z,0.00
2018-06-15T00:14:03.275Z,0.00
2018-06-15T00:15:03.263Z,0.00
2018-06-15T00:16:03.239Z,0.00
2018-06-15T00:17:03.226Z,0.00
2018-06-15T00:18:03.217Z,0.00
2018-06-15T00:19:03.202Z,0.00
2018-06-15T00:20:03.196Z,0.00
2018-06-15T00:21:03.178Z,0.00
2018-06-15T00:22:03.166Z,0.00
2018-06-15T00:23:03.152Z,0.00
2018-06-15T00:24:03.136Z,0.00
2018-06-15T00:25:03.118Z,0.00
2018-06-15T00:26:03.105Z,0.00
2018-06-15T00:27:03.101Z,0.00
2018-06-15T00:28:03.079Z,0.00
2018-06-15T00:29:03.079Z,0.00
2018-06-15T00:30:03.061Z,0.00
2018-06-15T00:31:03.093Z,0.00
2018-06-15T00:32:03.031Z,0.00
2018-06-15T00:33:03.020Z,0.00
2018-06-15T00:34:03.010Z,0.00
2018-06-15T00:35:02.997Z,0.00
2018-06-15T00:36:02.981Z,0.00
2018-06-15T00:37:02.962Z,0.00
2018-06-15T00:38:02.956Z,0.00
2018-06-15T00:39:02.942Z,0.00
2018-06-15T00:40:02.925Z,0.00
2018-06-15T00:41:02.916Z,0.00
2018-06-15T00:42:02.924Z,0.00
2018-06-15T00:43:02.887Z,0.00
2018-06-15T00:44:02.875Z,0.00
2018-06-15T00:45:02.857Z,0.00
2018-06-15T00:46:02.857Z,0.00
2018-06-15T00:47:02.828Z,0.00
2018-06-15T00:48:02.825Z,0.00
2018-06-15T00:49:02.811Z,0.00
2018-06-15T00:50:02.799Z,0.00
2018-06-15T00:51:02.788Z,0.00
2018-06-15T00:52:02.778Z,0.00
2018-06-15T00:53:02.751Z,0.00
2018-06-15T00:54:02.844Z,0.00
2018-06-15T00:55:02.725Z,0.00
2018-06-15T00:56:02.744Z,0.00
2018-06-15T00:57:02.697Z,0.00
2018-06-15T00:58:02.770Z,0.00
2018-06-15T00:59:02.675Z,0.00
2018-06-15T01:00:02.772Z,0.00
2018-06-15T01:01:02.645Z,0.00
2018-06-15T01:02:02.743Z,0.00
2018-06-15T01:03:02.632Z,0.00
2018-06-15T01:04:02.609Z,0.00
2018-06-15T01:05:02.597Z,0.00
2018-06-15T01:06:02.583Z,0.00
2018-06-15T01:07:02.571Z,0.00
2018-06-15T01:08:02.615Z,0.00
2018-06-15T01:09:02.554Z,0.00
2018-06-15T01:10:02.540Z,0.00
2018-06-15T01:11:02.525Z,0.00
2018-06-15T01:12:02.508Z,0.00
2018-06-15T01:13:02.491Z,0.00
2018-06-15T01:14:02.480Z,0.00
2018-06-15T01:15:02.472Z,0.00
2018-06-15T01:16:02.508Z,0.00
2018-06-15T01:17:02.441Z,0.00
2018-06-15T01:18:02.429Z,0.00
2018-06-15T01:19:02.412Z,0.00
2018-06-15T01:20:02.407Z,0.00
2018-06-15T01:21:02.384Z,0.00
2018-06-15T01:22:02.381Z,0.00
2018-06-15T01:23:02.362Z,0.00
2018-06-15T01:24:02.346Z,0.00
2018-06-15T01:25:02.332Z,0.00
2018-06-15T01:26:02.328Z,0.00
2018-06-15T01:27:02.303Z,0.00
2018-06-15T01:28:02.290Z,0.00
2018-06-15T01:29:02.287Z,0.00
2018-06-15T01:30:02.271Z,0.00
2018-06-15T01:31:02.258Z,0.00
2018-06-15T01:32:02.246Z,0.00
2018-06-15T01:33:02.233Z,0.00
2018-06-15T01:34:02.216Z,0.00
2018-06-15T01:35:02.206Z,0.00
2018-06-15T01:36:02.190Z,0.00
2018-06-15T01:37:02.182Z,0.00
2018-06-15T01:38:02.165Z,0.00
2018-06-15T01:39:02.159Z,0.00
2018-06-15T01:40:02.139Z,0.00
2018-06-15T01:41:02.128Z,0.00
2018-06-15T01:42:02.111Z,0.00
2018-06-15T01:43:02.115Z,0.00
2018-06-15T01:44:02.089Z,0.00
2018-06-15T01:45:02.071Z,0.00
2018-06-15T01:46:02.062Z,0.00
2018-06-15T01:47:02.042Z,0.00
2018-06-15T01:48:02.036Z,0.00
2018-06-15T01:49:02.032Z,0.00
2018-06-15T01:50:02.010Z,0.00
2018-06-15T01:51:01.990Z,0.00
2018-06-15T01:52:01.974Z,0.00
2018-06-15T01:53:01.966Z,0.00
2018-06-15T01:54:01.956Z,0.00
2018-06-15T01:55:01.940Z,0.00
2018-06-15T01:56:01.941Z,0.00
2018-06-15T01:57:01.912Z,0.00
2018-06-15T01:58:01.892Z,0.00
2018-06-15T01:59:01.879Z,0.00
2018-06-15T02:00:01.882Z,0.00
2018-06-15T02:01:01.863Z,0.00
2018-06-15T02:02:01.854Z,0.00
2018-06-15T02:03:01.840Z,0.00
2018-06-15T02:04:01.835Z,0.00
2018-06-15T02:05:01.803Z,0.00
2018-06-15T02:06:01.796Z,0.00
2018-06-15T02:07:01.777Z,0.00
2018-06-15T02:08:01.769Z,0.00
2018-06-15T02:09:01.761Z,0.00
2018-06-15T02:10:01.742Z,0.00
2018-06-15T02:11:01.723Z,0.00
2018-06-15T02:12:01.713Z,0.00
2018-06-15T02:13:01.697Z,0.00
2018-06-15T02:14:01.688Z,0.00
2018-06-15T02:15:01.669Z,0.00
2018-06-15T02:16:01.661Z,0.00
2018-06-15T02:17:01.652Z,0.00
2018-06-15T02:18:01.629Z,0.00
2018-06-15T02:19:01.615Z,0.00
2018-06-15T02:20:01.617Z,0.00
2018-06-15T02:21:01.588Z,0.00
2018-06-15T02:22:01.578Z,0.00
2018-06-15T02:23:01.565Z,0.00
2018-06-15T02:24:01.553Z,0.00
2018-06-15T02:25:01.539Z,0.00
2018-06-15T02:26:01.524Z,0.00
2018-06-15T02:27:01.512Z,0.00
2018-06-15T02:28:01.494Z,0.00
2018-06-15T02:29:01.591Z,0.00
2018-06-15T02:30:01.479Z,0.00
2018-06-15T02:31:01.457Z,0.00
2018-06-15T02:32:01.437Z,0.00
2018-06-15T02:33:01.441Z,0.00
2018-06-15T02:34:01.415Z,0.00
2018-06-15T02:35:01.395Z,0.00
2018-06-15T02:36:01.389Z,0.00
2018-06-15T02:37:01.430Z,4.00
2018-06-15T02:38:01.372Z,4.00
2018-06-15T02:39:01.349Z,4.00
2018-06-15T02:40:01.335Z,0.00
2018-06-15T02:41:01.316Z,0.00
2018-06-15T02:42:01.306Z,4.00
2018-06-15T02:43:01.344Z,4.00
2018-06-15T02:44:01.281Z,8.00
2018-06-15T02:45:01.273Z,4.00
2018-06-15T02:46:01.254Z,8.00
2018-06-15T02:47:01.241Z,4.00
2018-06-15T02:48:01.280Z,8.00
2018-06-15T02:49:01.211Z,8.00
2018-06-15T02:50:01.201Z,8.00
2018-06-15T02:51:01.183Z,8.00
2018-06-15T02:52:01.167Z,12.00
2018-06-15T02:53:01.160Z,8.00
2018-06-15T02:54:01.163Z,12.00
2018-06-15T02:55:01.123Z,12.00
2018-06-15T02:56:01.116Z,12.00
2018-06-15T02:57:01.107Z,12.00
2018-06-15T02:58:01.089Z,16.00
2018-06-15T02:59:01.085Z,16.00
2018-06-15T03:00:01.062Z,12.00
2018-06-15T03:01:01.046Z,16.00
2018-06-15T03:02:01.032Z,16.00
2018-06-15T03:03:01.016Z,20.00
2018-06-15T03:04:01.009Z,20.00
2018-06-15T03:05:00.989Z,24.00
2018-06-15T03:06:00.984Z,20.00
2018-06-15T03:07:00.962Z,24.00
2018-06-15T03:08:00.949Z,20.00
2018-06-15T03:09:00.936Z,24.00
2018-06-15T03:10:00.923Z,24.00
2018-06-15T03:11:00.910Z,24.00
2018-06-15T03:12:00.898Z,24.00
2018-06-15T03:13:00.875Z,28.00
2018-06-15T03:14:00.864Z,32.00
2018-06-15T03:15:00.864Z,36.00
2018-06-15T03:16:00.845Z,36.00
2018-06-15T03:17:00.830Z,36.00
2018-06-15T03:18:00.816Z,40.00
2018-06-15T03:19:00.799Z,44.00
2018-06-15T03:20:00.787Z,48.00
2018-06-15T03:21:00.783Z,52.00
2018-06-15T03:22:00.757Z,56.00
2018-06-15T03:23:00.751Z,56.00
2018-06-15T03:24:00.741Z,60.00
2018-06-15T03:25:00.785Z,60.00
2018-06-15T03:26:00.709Z,64.00
2018-06-15T03:27:00.702Z,68.00
2018-06-15T03:28:00.681Z,72.00
2018-06-15T03:29:00.659Z,80.00
2018-06-15T03:30:00.667Z,92.00
2018-06-15T03:31:00.637Z,104.00
2018-06-15T03:32:00.626Z,116.00
2018-06-15T03:33:00.611Z,128.00
2018-06-15T03:34:00.606Z,140.00
2018-06-15T03:35:00.589Z,144.00
2018-06-15T03:36:00.566Z,148.00
2018-06-15T03:37:00.553Z,152.00
2018-06-15T03:38:00.540Z,160.00
2018-06-15T03:39:00.536Z,172.00
2018-06-15T03:40:00.518Z,192.00
2018-06-15T03:41:00.512Z,220.00
2018-06-15T03:42:00.489Z,240.00
2018-06-15T03:43:00.480Z,256.00
2018-06-15T03:44:00.464Z,264.00
2018-06-15T03:45:00.451Z,272.00
2018-06-15T03:46:00.439Z,264.00
2018-06-15T03:47:00.426Z,252.00
2018-06-15T03:48:00.411Z,236.00
2018-06-15T03:49:00.398Z,228.00
2018-06-15T03:50:00.388Z,228.00
2018-06-15T03:51:00.374Z,228.00
2018-06-15T03:52:00.360Z,220.00
2018-06-15T03:53:00.355Z,204.00
2018-06-15T03:54:00.330Z,180.00
2018-06-15T03:55:00.318Z,168.00
2018-06-15T03:56:00.305Z,160.00
2018-06-15T03:57:00.289Z,156.00
2018-06-15T03:58:00.279Z,160.00
2018-06-15T03:59:00.262Z,176.00
2018-06-15T04:00:00.262Z,192.00
2018-06-15T04:01:00.233Z,200.00
2018-06-15T04:02:00.228Z,208.00
2018-06-15T04:03:00.211Z,216.00
2018-06-15T04:04:00.208Z,232.00
2018-06-15T04:05:00.182Z,244.00
2018-06-15T04:06:00.173Z,256.00
2018-06-15T04:07:00.159Z,276.00
2018-06-15T04:08:00.138Z,292.00
2018-06-15T04:09:00.128Z,304.00
2018-06-15T04:10:00.129Z,312.00
2018-06-15T04:11:00.112Z,316.00
2018-06-15T04:12:00.086Z,320.00
2018-06-15T04:13:00.150Z,328.00
2018-06-15T04:14:00.065Z,328.00
2018-06-15T04:15:00.059Z,320.00
2018-06-15T04:16:00.049Z,308.00
2018-06-15T04:17:00.030Z,292.00
2018-06-15T04:18:00.016Z,280.00
2018-06-15T04:18:59.998Z,284.00
2018-06-15T04:19:59.991Z,296.00
2018-06-15T04:20:59.965Z,312.00
2018-06-15T04:21:59.955Z,328.00
2018-06-15T04:22:59.937Z,328.00
2018-06-15T04:23:59.931Z,316.00
2018-06-15T04:24:59.930Z,304.00
2018-06-15T04:25:59.905Z,300.00
2018-06-15T04:26:59.893Z,304.00
2018-06-15T04:27:59.875Z,320.00
2018-06-15T04:28:59.862Z,344.00
2018-06-15T04:29:59.850Z,376.00
2018-06-15T04:30:59.840Z,404.00
2018-06-15T04:31:59.819Z,444.00
2018-06-15T04:32:59.811Z,484.00
2018-06-15T04:33:59.801Z,524.00
2018-06-15T04:34:59.783Z,560.00
2018-06-15T04:35:59.773Z,596.00
2018-06-15T04:36:59.767Z,624.00
2018-06-15T04:37:59.747Z,648.00
2018-06-15T04:38:59.731Z,668.00
2018-06-15T04:39:59.722Z,684.00
2018-06-15T04:40:59.707Z,704.00
2018-06-15T04:41:59.691Z,720.00
2018-06-15T04:42:59.681Z,740.00
2018-06-15T04:43:59.671Z,760.00
2018-06-15T04:44:59.664Z,780.00
2018-06-15T04:45:59.641Z,808.00
2018-06-15T04:46:59.628Z,848.00
2018-06-15T04:47:59.621Z,880.00
2018-06-15T04:48:59.600Z,900.00
2018-06-15T04:49:59.590Z,916.00
2018-06-15T04:50:59.570Z,920.00
2018-06-15T04:51:59.567Z,916.00
2018-06-15T04:52:59.554Z,912.00
2018-06-15T04:53:59.536Z,928.00
2018-06-15T04:54:59.541Z,952.00
2018-06-15T04:55:59.512Z,984.00
2018-06-15T04:56:59.504Z,1024.00
2018-06-15T04:57:59.482Z,1064.00
2018-06-15T04:58:59.469Z,1092.00
2018-06-15T04:59:59.460Z,1108.00
2018-06-15T05:00:59.453Z,1076.00
2018-06-15T05:01:59.433Z,1024.00
2018-06-15T05:02:59.420Z,1016.00
2018-06-15T05:03:59.410Z,1032.00
2018-06-15T05:04:59.500Z,1036.00
2018-06-15T05:05:59.384Z,1044.00
2018-06-15T05:06:59.372Z,1060.00
2018-06-15T05:07:59.365Z,1060.00
2018-06-15T05:08:59.340Z,1060.00
2018-06-15T05:09:59.329Z,1068.00
2018-06-15T05:10:59.320Z,1092.00
2018-06-15T05:11:59.308Z,1128.00
2018-06-15T05:12:59.286Z,1188.00
2018-06-15T05:13:59.274Z,1240.00
2018-06-15T05:14:59.266Z,1312.00
2018-06-15T05:15:59.253Z,1376.00
2018-06-15T05:16:59.238Z,1400.00
2018-06-15T05:17:59.234Z,1404.00
2018-06-15T05:18:59.212Z,1420.00
2018-06-15T05:19:59.206Z,1460.00
2018-06-15T05:20:59.189Z,1492.00
2018-06-15T05:21:59.171Z,1528.00
2018-06-15T05:22:59.155Z,1580.00
2018-06-15T05:23:59.151Z,1648.00
2018-06-15T05:24:59.135Z,1728.00
2018-06-15T05:25:59.122Z,1784.00
2018-06-15T05:26:59.113Z,1816.00
2018-06-15T05:27:59.100Z,1832.00
2018-06-15T05:28:59.090Z,1816.00
2018-06-15T05:29:59.076Z,1728.00
2018-06-15T05:30:59.053Z,1552.00
2018-06-15T05:31:59.047Z,1332.00
2018-06-15T05:32:59.037Z,1216.00
2018-06-15T05:33:59.021Z,1172.00
2018-06-15T05:34:59.009Z,1136.00
2018-06-15T05:35:58.994Z,1120.00
2018-06-15T05:36:58.987Z,1136.00
2018-06-15T05:37:58.973Z,1164.00
2018-06-15T05:38:58.961Z,1192.00
2018-06-15T05:39:58.956Z,1252.00
2018-06-15T05:40:58.992Z,1328.00
2018-06-15T05:41:58.932Z,1392.00
2018-06-15T05:42:58.909Z,1412.00
2018-06-15T05:43:58.900Z,1384.00
2018-06-15T05:44:58.881Z,1356.00
2018-06-15T05:45:58.871Z,1324.00
2018-06-15T05:46:58.857Z,1276.00
2018-06-15T05:47:58.850Z,1236.00
2018-06-15T05:48:58.843Z,1216.00
2018-06-15T05:49:58.888Z,1208.00
2018-06-15T05:50:58.812Z,1204.00
2018-06-15T05:51:58.795Z,1184.00
2018-06-15T05:52:58.777Z,1128.00
2018-06-15T05:53:58.768Z,1096.00
2018-06-15T05:54:58.757Z,1116.00
2018-06-15T05:55:58.745Z,1156.00
2018-06-15T05:56:58.732Z,1192.00
2018-06-15T05:57:58.721Z,1252.00
2018-06-15T05:58:58.706Z,1300.00
2018-06-15T05:59:58.697Z,1312.00
2018-06-15T06:00:58.683Z,1320.00
2018-06-15T06:01:58.671Z,1360.00
2018-06-15T06:02:58.662Z,1456.00
2018-06-15T06:03:58.753Z,1588.00
2018-06-15T06:04:58.627Z,1724.00
2018-06-15T06:05:58.614Z,1896.00
2018-06-15T06:06:58.604Z,2072.00
2018-06-15T06:07:58.601Z,2296.00
2018-06-15T06:08:58.582Z,2548.00
2018-06-15T06:09:58.589Z,2852.00
2018-06-15T06:10:58.547Z,3196.00
2018-06-15T06:11:58.538Z,3588.00
2018-06-15T06:12:58.524Z,3892.00
2018-06-15T06:13:58.521Z,4020.00
2018-06-15T06:14:58.502Z,4092.00
2018-06-15T06:15:58.485Z,4344.00
2018-06-15T06:16:58.477Z,4572.00
2018-06-15T06:17:58.468Z,4776.00
2018-06-15T06:18:58.449Z,4928.00
2018-06-15T06:19:58.515Z,4824.00
2018-06-15T06:20:58.429Z,4408.00
2018-06-15T06:21:58.509Z,3864.00
2018-06-15T06:22:58.397Z,3572.00
2018-06-15T06:23:58.490Z,3356.00
2018-06-15T06:24:58.378Z,3148.00
2018-06-15T06:25:58.361Z,3020.00
2018-06-15T06:26:58.349Z,3052.00
2018-06-15T06:27:58.340Z,3228.00
2018-06-15T06:28:58.328Z,3488.00
2018-06-15T06:29:58.364Z,3764.00
2018-06-15T06:30:58.303Z,3924.00
2018-06-15T06:31:58.289Z,4024.00
2018-06-15T06:32:58.274Z,4168.00
2018-06-15T06:33:58.274Z,4316.00
2018-06-15T06:34:58.247Z,4368.00
2018-06-15T06:35:58.247Z,4464.00
2018-06-15T06:36:58.233Z,4596.00
2018-06-15T06:37:58.290Z,4872.00
2018-06-15T06:38:58.204Z,5104.00
2018-06-15T06:39:58.202Z,5468.00
2018-06-15T06:40:58.179Z,5892.00
2018-06-15T06:41:58.167Z,6216.00
2018-06-15T06:42:58.161Z,6628.00
2018-06-15T06:43:58.149Z,6784.00
2018-06-15T06:44:58.132Z,6548.00
2018-06-15T06:45:58.123Z,6940.00
2018-06-15T06:46:58.114Z,7568.00
2018-06-15T06:47:58.101Z,7632.00
2018-06-15T06:48:58.079Z,8244.00
2018-06-15T06:49:58.072Z,9072.00
2018-06-15T06:50:58.064Z,9344.00
2018-06-15T06:51:58.050Z,9892.00
2018-06-15T06:52:58.038Z,8928.00
2018-06-15T06:53:58.025Z,8892.00
2018-06-15T06:54:58.020Z,10376.00
2018-06-15T06:55:58.012Z,10116.00
2018-06-15T06:56:57.992Z,10424.00
2018-06-15T06:57:57.982Z,10912.00
2018-06-15T06:58:57.971Z,10696.00
2018-06-15T06:59:57.961Z,11004.00
2018-06-15T07:00:57.948Z,10464.00
2018-06-15T07:01:57.939Z,10724.00
2018-06-15T07:02:57.929Z,10716.00
2018-06-15T07:03:57.920Z,11028.00
2018-06-15T07:04:57.904Z,10988.00
2018-06-15T07:05:57.889Z,10860.00
2018-06-15T07:06:57.882Z,11076.00
2018-06-15T07:07:57.877Z,12292.00
2018-06-15T07:08:57.878Z,13036.00
2018-06-15T07:09:57.855Z,13152.00
2018-06-15T07:10:57.841Z,13112.00
2018-06-15T07:11:57.881Z,12792.00
2018-06-15T07:12:57.809Z,13564.00
2018-06-15T07:13:57.810Z,13244.00
2018-06-15T07:14:57.802Z,12668.00
2018-06-15T07:15:57.808Z,12924.00
2018-06-15T07:16:57.768Z,13084.00
2018-06-15T07:17:57.769Z,12800.00
2018-06-15T07:18:57.764Z,12984.00
2018-06-15T07:19:57.751Z,12704.00
2018-06-15T07:20:57.733Z,13100.00
2018-06-15T07:21:57.723Z,12784.00
2018-06-15T07:22:57.710Z,11508.00
2018-06-15T07:23:57.704Z,11404.00
2018-06-15T07:24:57.687Z,11440.00
2018-06-15T07:25:57.679Z,11432.00
2018-06-15T07:26:57.676Z,9696.00
2018-06-15T07:27:57.664Z,8572.00
2018-06-15T07:28:57.657Z,7740.00
2018-06-15T07:29:57.638Z,7028.00
2018-06-15T07:30:57.641Z,6792.00
2018-06-15T07:31:57.631Z,6688.00
2018-06-15T07:32:57.611Z,6680.00
2018-06-15T07:33:57.602Z,6832.00
2018-06-15T07:34:57.593Z,7004.00
2018-06-15T07:35:57.583Z,7080.00
2018-06-15T07:36:57.574Z,6572.00
2018-06-15T07:37:57.558Z,6440.00
2018-06-15T07:38:57.548Z,6604.00
2018-06-15T07:39:57.548Z,6900.00
2018-06-15T07:40:57.533Z,6748.00
2018-06-15T07:41:57.532Z,7172.00
2018-06-15T07:42:57.504Z,7532.00
2018-06-15T07:43:57.498Z,7452.00
2018-06-15T07:44:57.487Z,7404.00
2018-06-15T07:45:57.481Z,7164.00
2018-06-15T07:46:57.468Z,7432.00
2018-06-15T07:47:57.461Z,7712.00
2018-06-15T07:48:57.449Z,7896.00
2018-06-15T07:49:57.433Z,7656.00
2018-06-15T07:50:57.430Z,7400.00
2018-06-15T07:51:57.423Z,7036.00
2018-06-15T07:52:57.412Z,6756.00
2018-06-15T07:53:57.388Z,6776.00
2018-06-15T07:54:57.381Z,6724.00
2018-06-15T07:55:57.368Z,6452.00
2018-06-15T07:56:57.362Z,6156.00
2018-06-15T07:57:57.352Z,5968.00
2018-06-15T07:58:57.344Z,6040.00
2018-06-15T07:59:57.334Z,6380.00
2018-06-15T08:00:57.317Z,7032.00
2018-06-15T08:01:57.311Z,7552.00
2018-06-15T08:02:57.294Z,7892.00
2018-06-15T08:03:57.288Z,8168.00
2018-06-15T08:04:57.270Z,7836.00
2018-06-15T08:05:57.268Z,7996.00
2018-06-15T08:06:57.257Z,7764.00
2018-06-15T08:07:57.241Z,7740.00
2018-06-15T08:08:57.230Z,7960.00
2018-06-15T08:09:57.227Z,8440.00
2018-06-15T08:10:57.213Z,8960.00
2018-06-15T08:11:57.213Z,9164.00
2018-06-15T08:12:57.197Z,11420.00
2018-06-15T08:13:57.182Z,12124.00
2018-06-15T08:14:57.172Z,13252.00
2018-06-15T08:15:57.303Z,13856.00
2018-06-15T08:16:57.145Z,12152.00
2018-06-15T08:17:57.143Z,10464.00
2018-06-15T08:18:57.123Z,9612.00
2018-06-15T08:19:57.219Z,9408.00
2018-06-15T08:20:57.109Z,8136.00
2018-06-15T08:21:57.197Z,8700.00
2018-06-15T08:22:57.081Z,9576.00
2018-06-15T08:23:57.177Z,10252.00
2018-06-15T08:24:57.068Z,11476.00
2018-06-15T08:25:57.157Z,12352.00
2018-06-15T08:26:57.045Z,13160.00
2018-06-15T08:27:57.050Z,13240.00
2018-06-15T08:28:57.027Z,12532.00
2018-06-15T08:29:57.072Z,12564.00
2018-06-15T08:30:57.008Z,12340.00
2018-06-15T08:31:57.002Z,12108.00
2018-06-15T08:32:56.992Z,12928.00
2018-06-15T08:33:56.983Z,13692.00
2018-06-15T08:34:56.975Z,14408.00
2018-06-15T08:35:57.017Z,14860.00
2018-06-15T08:36:56.948Z,14344.00
2018-06-15T08:37:56.952Z,10608.00
2018-06-15T08:38:56.938Z,9776.00
2018-06-15T08:39:56.938Z,9528.00
2018-06-15T08:40:56.922Z,10568.00
2018-06-15T08:41:56.911Z,10664.00
2018-06-15T08:42:56.930Z,9780.00
2018-06-15T08:43:56.895Z,11292.00
2018-06-15T08:44:56.899Z,10296.00
2018-06-15T08:45:56.873Z,9504.00
2018-06-15T08:46:56.867Z,7384.00
2018-06-15T08:47:56.861Z,6200.00
2018-06-15T08:48:56.852Z,6280.00
2018-06-15T08:49:56.843Z,6472.00
2018-06-15T08:50:56.831Z,7152.00
2018-06-15T08:51:56.826Z,7044.00
2018-06-15T08:52:56.819Z,6932.00
2018-06-15T08:53:56.806Z,7260.00
2018-06-15T08:54:56.799Z,7608.00
2018-06-15T08:55:56.790Z,8080.00
2018-06-15T08:56:56.781Z,9100.00
2018-06-15T08:57:56.772Z,10448.00
2018-06-15T08:58:56.760Z,11276.00
2018-06-15T08:59:56.760Z,11212.00
2018-06-15T09:00:56.739Z,11396.00
2018-06-15T09:01:56.762Z,10632.00
2018-06-15T09:02:56.723Z,9420.00
2018-06-15T09:03:56.713Z,9020.00
2018-06-15T09:04:56.715Z,8644.00
2018-06-15T09:05:56.695Z,8508.00
2018-06-15T09:06:56.688Z,10100.00
2018-06-15T09:07:56.685Z,9200.00
2018-06-15T09:08:56.674Z,8980.00
2018-06-15T09:09:56.670Z,9468.00
2018-06-15T09:10:56.654Z,10616.00
2018-06-15T09:11:56.649Z,11984.00
2018-06-15T09:12:56.643Z,10168.00
2018-06-15T09:13:56.633Z,10092.00
2018-06-15T09:14:56.644Z,13076.00
2018-06-15T09:15:56.617Z,14168.00
2018-06-15T09:16:56.610Z,10956.00
2018-06-15T09:17:56.597Z,11152.00
2018-06-15T09:18:56.588Z,12360.00
2018-06-15T09:19:56.578Z,11164.00
2018-06-15T09:20:56.571Z,11788.00
2018-06-15T09:21:56.566Z,12500.00
2018-06-15T09:22:56.553Z,14688.00
2018-06-15T09:23:56.550Z,11876.00
2018-06-15T09:24:56.536Z,11092.00
2018-06-15T09:25:56.540Z,10732.00
2018-06-15T09:26:56.531Z,11344.00
2018-06-15T09:27:56.524Z,11904.00
2018-06-15T09:28:56.511Z,11416.00
2018-06-15T09:29:56.508Z,10412.00
2018-06-15T09:30:56.489Z,10560.00
2018-06-15T09:31:56.485Z,10264.00
2018-06-15T09:32:56.479Z,10116.00
2018-06-15T09:33:56.477Z,13352.00
2018-06-15T09:34:56.455Z,20096.00
2018-06-15T09:35:56.451Z,33824.00
2018-06-15T09:36:56.446Z,14332.00
2018-06-15T09:37:56.439Z,13072.00
2018-06-15T09:38:56.467Z,11656.00
2018-06-15T09:39:56.420Z,10676.00
2018-06-15T09:40:56.410Z,9872.00
2018-06-15T09:41:56.411Z,9236.00
2018-06-15T09:42:56.398Z,9992.00
2018-06-15T09:43:56.404Z,8908.00
2018-06-15T09:44:56.379Z,8884.00
2018-06-15T09:45:56.366Z,8752.00
2018-06-15T09:46:56.360Z,8804.00
2018-06-15T09:47:56.357Z,9124.00
2018-06-15T09:48:56.342Z,9888.00
2018-06-15T09:49:56.340Z,10344.00
2018-06-15T09:50:56.327Z,11308.00
2018-06-15T09:51:56.320Z,34464.00
2018-06-15T09:52:56.326Z,36768.00
2018-06-15T09:53:56.331Z,31200.00
2018-06-15T09:54:56.301Z,15368.00
2018-06-15T09:55:56.293Z,26624.00
2018-06-15T09:56:56.276Z,40288.00
2018-06-15T09:57:56.273Z,13332.00
2018-06-15T09:58:56.263Z,8692.00
2018-06-15T09:59:56.262Z,8500.00
2018-06-15T10:00:56.253Z,8412.00
2018-06-15T10:01:56.241Z,8084.00
2018-06-15T10:02:56.235Z,8016.00
2018-06-15T10:03:56.231Z,8060.00
2018-06-15T10:04:56.222Z,12048.00
2018-06-15T10:05:56.211Z,17696.00
2018-06-15T10:06:56.206Z,15776.00
2018-06-15T10:07:56.201Z,9196.00
2018-06-15T10:08:56.186Z,8968.00
2018-06-15T10:09:56.178Z,26656.00
2018-06-15T10:10:56.178Z,15456.00
2018-06-15T10:11:56.162Z,7544.00
2018-06-15T10:12:56.160Z,7540.00
2018-06-15T10:13:56.152Z,8052.00
2018-06-15T10:14:56.139Z,7632.00
2018-06-15T10:15:56.140Z,7600.00
2018-06-15T10:16:56.123Z,7696.00
2018-06-15T10:17:56.121Z,8288.00
2018-06-15T10:18:56.107Z,8900.00
2018-06-15T10:19:56.107Z,8720.00
2018-06-15T10:20:56.098Z,8064.00
2018-06-15T10:21:56.092Z,7576.00
2018-06-15T10:22:56.078Z,7588.00
2018-06-15T10:23:56.071Z,7736.00
2018-06-15T10:24:56.145Z,7840.00
2018-06-15T10:25:56.057Z,7316.00
2018-06-15T10:26:56.047Z,6956.00
2018-06-15T10:27:56.038Z,6816.00
2018-06-15T10:28:56.031Z,6720.00
2018-06-15T10:29:56.029Z,6740.00
2018-06-15T10:30:56.021Z,10140.00
2018-06-15T10:31:56.009Z,11528.00
2018-06-15T10:32:55.997Z,11696.00
2018-06-15T10:33:55.990Z,11876.00
2018-06-15T10:34:55.989Z,7592.00
2018-06-15T10:35:55.977Z,6960.00
2018-06-15T10:36:56.111Z,8780.00
2018-06-15T10:37:55.957Z,6768.00
2018-06-15T10:38:56.056Z,6748.00
2018-06-15T10:39:55.964Z,6560.00
2018-06-15T10:40:55.938Z,6416.00
2018-06-15T10:41:55.928Z,6368.00
2018-06-15T10:42:56.018Z,6492.00
2018-06-15T10:43:55.917Z,7188.00
2018-06-15T10:44:55.908Z,10560.00
2018-06-15T10:45:55.897Z,10324.00
2018-06-15T10:46:55.891Z,11904.00
2018-06-15T10:47:55.884Z,11944.00
2018-06-15T10:48:55.868Z,12492.00
2018-06-15T10:49:55.867Z,12476.00
2018-06-15T10:50:55.858Z,12564.00
2018-06-15T10:51:55.863Z,12624.00
2018-06-15T10:52:55.847Z,12560.00
2018-06-15T10:53:55.838Z,12728.00
2018-06-15T10:54:55.831Z,11972.00
2018-06-15T10:55:55.827Z,12788.00
2018-06-15T10:56:55.818Z,12952.00
2018-06-15T10:57:55.807Z,12928.00
2018-06-15T10:58:55.801Z,12872.00
2018-06-15T10:59:55.797Z,12432.00
2018-06-15T11:00:55.786Z,12012.00
2018-06-15T11:01:55.779Z,12100.00
2018-06-15T11:02:55.777Z,11948.00
2018-06-15T11:03:55.762Z,11828.00
2018-06-15T11:04:55.757Z,11740.00
2018-06-15T11:05:55.753Z,11752.00
2018-06-15T11:06:55.741Z,11772.00
2018-06-15T11:07:55.737Z,11584.00
2018-06-15T11:08:55.745Z,11192.00
2018-06-15T11:09:55.728Z,11180.00
2018-06-15T11:10:55.728Z,10796.00
2018-06-15T11:11:55.718Z,7752.00
2018-06-15T11:12:55.712Z,7884.00
2018-06-15T11:13:55.757Z,8408.00
2018-06-15T11:14:55.714Z,11232.00
2018-06-15T11:15:55.690Z,10332.00
2018-06-15T11:16:55.683Z,9324.00
2018-06-15T11:17:55.685Z,6692.00
2018-06-15T11:18:55.686Z,6720.00
2018-06-15T11:19:55.736Z,6948.00
2018-06-15T11:20:55.654Z,7316.00
2018-06-15T11:21:55.662Z,7524.00
2018-06-15T11:22:55.649Z,7992.00
2018-06-15T11:23:55.642Z,11136.00
2018-06-15T11:24:55.633Z,11392.00
2018-06-15T11:25:55.627Z,11988.00
2018-06-15T11:26:55.622Z,12144.00
2018-06-15T11:27:55.627Z,12032.00
2018-06-15T11:28:55.618Z,12188.00
2018-06-15T11:29:55.598Z,12368.00
2018-06-15T11:30:55.654Z,12600.00
2018-06-15T11:31:55.588Z,12904.00
2018-06-15T11:32:55.579Z,11708.00
2018-06-15T11:33:55.584Z,12724.00
2018-06-15T11:34:55.566Z,12508.00
2018-06-15T11:35:55.556Z,12176.00
2018-06-15T11:36:55.557Z,12196.00
2018-06-15T11:37:55.553Z,11936.00
2018-06-15T11:38:55.545Z,11924.00
2018-06-15T11:39:55.536Z,11744.00
2018-06-15T11:40:55.595Z,11632.00
2018-06-15T11:41:55.518Z,11504.00
2018-06-15T11:42:55.519Z,11468.00
2018-06-15T11:43:55.508Z,11516.00
2018-06-15T11:44:55.498Z,11484.00
2018-06-15T11:45:55.489Z,11412.00
2018-06-15T11:46:55.488Z,11288.00
2018-06-15T11:47:55.486Z,11108.00
2018-06-15T11:48:55.474Z,11004.00
2018-06-15T11:49:55.472Z,10740.00
2018-06-15T11:50:55.464Z,10624.00
2018-06-15T11:51:55.459Z,10628.00
2018-06-15T11:52:55.452Z,10544.00
2018-06-15T11:53:55.452Z,10344.00
2018-06-15T11:54:55.433Z,10320.00
2018-06-15T11:55:55.432Z,10068.00
2018-06-15T11:56:55.429Z,10048.00
2018-06-15T11:57:55.417Z,10068.00
2018-06-15T11:58:55.420Z,10044.00
2018-06-15T11:59:55.407Z,9804.00
2018-06-15T12:00:55.398Z,9964.00
2018-06-15T12:01:55.398Z,9924.00
2018-06-15T12:02:55.392Z,9752.00
2018-06-15T12:03:55.381Z,9676.00
2018-06-15T12:04:55.415Z,9692.00
2018-06-15T12:05:55.373Z,9720.00
2018-06-15T12:06:55.363Z,9636.00
2018-06-15T12:07:55.365Z,9768.00
2018-06-15T12:08:55.353Z,9920.00
2018-06-15T12:09:55.347Z,10032.00
2018-06-15T12:10:55.346Z,10080.00
2018-06-15T12:11:55.337Z,10128.00
2018-06-15T12:12:55.332Z,10160.00
2018-06-15T12:13:55.318Z,10068.00
2018-06-15T12:14:55.314Z,9984.00
2018-06-15T12:15:55.314Z,10156.00
2018-06-15T12:16:55.299Z,10188.00
2018-06-15T12:17:55.299Z,10268.00
2018-06-15T12:18:55.289Z,10452.00
2018-06-15T12:19:55.290Z,10672.00